Time;durP1;ratioP1;P1;durP2;ratioP2;P2;SDS_P1;SDS_P2;PMS_P1;PMS_P2;Temp;Humidity;BMP_temperature;BMP_pressure;BME280_temperature;BME280_humidity;BME280_pressure;Samples;Min_cycle;Max_cycle;Signal;HPM_P1;HPM_P2
2024/04/18 00:02:24;;;;;;;1.70;1.00;;;4.30;99.90;;;;;;15350903;19;20126;-78
2024/04/18 00:07:25;;;;;;;1.13;0.63;;;4.20;99.90;;;;;;15321870;19;20150;-80
2024/04/18 00:12:25;;;;;;;1.00;0.90;;;4.10;99.90;;;;;;15303272;19;20202;-79
2024/04/18 00:17:26;;;;;;;1.53;1.00;;;3.90;99.90;;;;;;15317195;19;20744;-79
2024/04/18 00:22:26;;;;;;;1.47;1.00;;;4.00;99.90;;;;;;15316669;19;20130;-79
2024/04/18 00:27:27;;;;;;;1.80;1.10;;;4.10;99.90;;;;;;15319361;19;20885;-79
2024/04/18 00:32:28;;;;;;;2.30;1.03;;;4.20;99.90;;;;;;15304050;19;20130;-78
2024/04/18 00:37:28;;;;;;;1.43;1.10;;;4.40;99.90;;;;;;15323305;19;20130;-78
2024/04/18 00:42:29;;;;;;;0.97;0.57;;;4.40;99.90;;;;;;15315056;19;20562;-79
2024/04/18 00:47:29;;;;;;;0.77;0.60;;;4.50;99.90;;;;;;15330618;19;20137;-79
2024/04/18 00:52:30;;;;;;;1.10;0.90;;;4.50;99.90;;;;;;15318859;19;20146;-78
2024/04/18 00:57:32;;;;;;;1.10;0.60;;;4.20;99.90;;;;;;15324653;19;20149;-78
2024/04/18 01:02:33;;;;;;;1.20;0.70;;;4.00;99.90;;;;;;15310198;19;20170;-78
2024/04/18 01:07:33;;;;;;;1.17;0.67;;;4.10;99.90;;;;;;15327412;19;20122;-78
2024/04/18 01:12:34;;;;;;;0.60;0.50;;;4.10;99.90;;;;;;15316054;19;20536;-78
2024/04/18 01:17:34;;;;;;;0.50;0.30;;;4.10;99.90;;;;;;15324919;19;20227;-78
2024/04/18 01:22:35;;;;;;;1.70;0.57;;;4.20;99.90;;;;;;15311650;19;20517;-78
2024/04/18 01:27:35;;;;;;;0.83;0.40;;;4.00;99.90;;;;;;15328733;19;20118;-78
2024/04/18 01:32:36;;;;;;;0.20;0.20;;;4.00;99.90;;;;;;15313699;19;20122;-80
2024/04/18 01:37:37;;;;;;;0.20;0.20;;;4.20;99.90;;;;;;15342949;19;20137;-78
2024/04/18 01:42:38;;;;;;;0.93;0.53;;;4.20;99.90;;;;;;15324681;19;20156;-79
2024/04/18 01:47:38;;;;;;;0.33;0.30;;;4.00;99.90;;;;;;15329264;19;20614;-80
2024/04/18 01:52:39;;;;;;;1.93;0.70;;;4.30;99.90;;;;;;15311489;19;20142;-79
2024/04/18 01:57:40;;;;;;;0.67;0.50;;;4.50;99.90;;;;;;15318448;19;20146;-80
2024/04/18 02:02:41;;;;;;;0.80;0.40;;;4.60;99.90;;;;;;15310770;19;20123;-80
2024/04/18 02:07:42;;;;;;;0.70;0.30;;;4.70;99.90;;;;;;15326041;19;20528;-80
2024/04/18 02:12:42;;;;;;;0.90;0.60;;;4.80;99.90;;;;;;15309901;19;20237;-80
2024/04/18 02:17:43;;;;;;;1.53;0.47;;;4.90;99.90;;;;;;15318671;19;20158;-79
2024/04/18 02:22:43;;;;;;;1.17;0.40;;;4.90;99.90;;;;;;15302360;19;20133;-79
2024/04/18 02:27:44;;;;;;;1.23;0.77;;;5.00;99.90;;;;;;15319284;19;20138;-79
2024/04/18 02:32:44;;;;;;;0.60;0.50;;;4.80;99.90;;;;;;15304969;19;20181;-79
2024/04/18 02:37:45;;;;;;;2.53;0.40;;;5.00;99.90;;;;;;15314763;19;20146;-80
2024/04/18 02:42:45;;;;;;;0.50;0.30;;;5.10;99.90;;;;;;15299835;19;20173;-81
2024/04/18 02:47:46;;;;;;;1.07;0.40;;;5.30;99.90;;;;;;15317163;19;20225;-81
2024/04/18 02:52:46;;;;;;;1.40;0.60;;;5.20;99.90;;;;;;15303237;19;20162;-80
2024/04/18 02:57:47;;;;;;;0.43;0.23;;;5.10;99.90;;;;;;15300917;19;20149;-80
2024/04/18 03:02:47;;;;;;;0.77;0.60;;;5.20;99.90;;;;;;15300548;19;20138;-80
2024/04/18 03:07:48;;;;;;;1.00;0.43;;;5.40;99.90;;;;;;15301591;19;20148;-81
2024/04/18 03:12:52;;;;;;;1.13;0.40;;;5.40;99.90;;;;;;15301723;19;20194;-80
2024/04/18 03:17:53;;;;;;;1.40;0.83;;;5.40;99.90;;;;;;15306801;19;20669;-81
2024/04/18 03:22:54;;;;;;;0.73;0.37;;;5.30;99.90;;;;;;15312736;19;20181;-80
2024/04/18 03:27:54;;;;;;;1.90;0.40;;;5.20;99.90;;;;;;15301802;19;20155;-80
2024/04/18 03:32:55;;;;;;;1.50;0.50;;;4.50;99.90;;;;;;15304878;19;20137;-81
2024/04/18 03:37:55;;;;;;;0.63;0.40;;;4.40;99.90;;;;;;15311965;19;20152;-80
2024/04/18 03:42:56;;;;;;;0.50;0.40;;;4.20;99.90;;;;;;15316886;19;20165;-79
2024/04/18 03:47:57;;;;;;;0.97;0.63;;;4.00;99.90;;;;;;15303775;19;20138;-80
2024/04/18 03:52:57;;;;;;;2.57;0.80;;;3.80;99.90;;;;;;15310957;19;20609;-79
2024/04/18 03:57:58;;;;;;;1.50;1.00;;;3.70;99.90;;;;;;15312561;19;20130;-80
2024/04/18 04:02:58;;;;;;;1.10;0.60;;;3.70;99.90;;;;;;15295947;19;20185;-80
2024/04/18 04:08:05;;;;;;;1.07;0.60;;;3.60;99.90;;;;;;15305073;19;20118;-79
2024/04/18 04:13:05;;;;;;;1.20;0.80;;;3.50;99.90;;;;;;15310086;19;20180;-80
2024/04/18 04:18:06;;;;;;;0.70;0.60;;;3.60;99.90;;;;;;15311546;19;20634;-80
2024/04/18 04:23:06;;;;;;;1.20;0.60;;;3.60;99.90;;;;;;15305442;19;20170;-80
2024/04/18 04:28:07;;;;;;;2.30;1.67;;;3.60;99.90;;;;;;15311023;19;20751;-80
2024/04/18 04:33:07;;;;;;;2.13;0.83;;;3.70;99.90;;;;;;15309552;19;20202;-80
2024/04/18 04:38:08;;;;;;;1.77;0.73;;;3.70;99.90;;;;;;15314234;19;20130;-84
2024/04/18 04:43:08;;;;;;;1.23;0.77;;;3.70;99.90;;;;;;15312628;19;20153;-84
2024/04/18 04:48:09;;;;;;;0.93;0.70;;;3.70;99.90;;;;;;15311344;19;20130;-82
2024/04/18 04:53:09;;;;;;;1.77;0.87;;;3.90;99.90;;;;;;15321140;19;20174;-81
2024/04/18 04:58:10;;;;;;;3.10;1.70;;;3.90;99.90;;;;;;15308125;19;20138;-79
2024/04/18 05:03:10;;;;;;;1.60;0.87;;;4.00;99.90;;;;;;15306728;19;20210;-79
2024/04/18 05:08:11;;;;;;;1.10;0.70;;;4.10;99.90;;;;;;15307083;19;20147;-81
2024/04/18 05:13:12;;;;;;;2.97;0.93;;;4.10;99.90;;;;;;15313285;19;20161;-81
2024/04/18 05:18:13;;;;;;;1.17;0.90;;;4.00;99.90;;;;;;15317799;19;20142;-83
2024/04/18 05:23:14;;;;;;;1.53;0.73;;;4.20;99.90;;;;;;15332535;19;20173;-81
2024/04/18 05:28:20;;;;;;;3.20;1.00;;;4.30;99.90;;;;;;15313044;19;20111;-81
2024/04/18 05:33:22;;;;;;;2.37;1.30;;;4.30;99.90;;;;;;15304305;19;20186;-79
2024/04/18 05:38:22;;;;;;;3.13;1.33;;;4.50;99.90;;;;;;15306953;19;20131;-80
2024/04/18 05:43:24;;;;;;;1.87;1.03;;;4.70;99.90;;;;;;15301655;19;20217;-79
2024/04/18 05:48:24;;;;;;;2.60;1.23;;;4.80;99.90;;;;;;15305509;19;20218;-80
2024/04/18 05:53:25;;;;;;;2.50;1.23;;;5.10;99.90;;;;;;15308307;19;20230;-79
2024/04/18 05:58:26;;;;;;;1.60;1.00;;;5.30;99.90;;;;;;15302237;19;20155;-79
2024/04/18 06:03:26;;;;;;;2.57;1.67;;;5.30;99.90;;;;;;15309288;19;20158;-83
2024/04/18 06:08:27;;;;;;;1.30;1.00;;;5.20;99.90;;;;;;15314280;19;20206;-79
2024/04/18 06:13:27;;;;;;;2.30;1.33;;;5.20;99.90;;;;;;15298474;19;20167;-79
2024/04/18 06:18:29;;;;;;;1.77;0.90;;;5.20;99.90;;;;;;15300184;19;20474;-79
2024/04/18 06:23:29;;;;;;;1.40;0.83;;;5.10;99.90;;;;;;15298769;19;20174;-80
2024/04/18 06:28:30;;;;;;;1.57;1.40;;;5.20;99.90;;;;;;15303748;19;20130;-79
2024/04/18 06:33:30;;;;;;;2.43;1.23;;;5.00;99.90;;;;;;15302290;19;20145;-78
2024/04/18 06:38:31;;;;;;;4.20;1.37;;;5.10;99.90;;;;;;15298369;19;20147;-79
2024/04/18 06:43:31;;;;;;;1.17;0.73;;;5.20;99.90;;;;;;15306293;19;20190;-80
2024/04/18 06:48:32;;;;;;;2.70;1.20;;;5.30;99.90;;;;;;15301357;19;20175;-82
2024/04/18 06:53:32;;;;;;;1.63;1.23;;;5.40;99.90;;;;;;15304305;19;20138;-82
2024/04/18 06:58:33;;;;;;;2.83;1.30;;;5.60;99.90;;;;;;15311150;19;20495;-81
2024/04/18 07:03:33;;;;;;;1.47;0.90;;;5.70;99.90;;;;;;15310256;19;20158;-80
2024/04/18 07:08:35;;;;;;;1.33;0.57;;;5.60;99.90;;;;;;15305132;19;20134;-82
2024/04/18 07:13:35;;;;;;;1.10;0.80;;;5.60;99.90;;;;;;15299137;19;20146;-81
2024/04/18 07:18:36;;;;;;;1.20;0.77;;;5.80;99.90;;;;;;15303974;19;20127;-82
2024/04/18 07:23:37;;;;;;;1.10;0.80;;;6.00;99.90;;;;;;15305332;19;20154;-81
2024/04/18 07:28:37;;;;;;;1.40;0.60;;;5.90;99.90;;;;;;15316521;19;20134;-82
2024/04/18 07:33:38;;;;;;;1.43;0.93;;;6.00;99.90;;;;;;15317381;19;21042;-82
2024/04/18 07:38:38;;;;;;;1.00;0.70;;;6.10;99.90;;;;;;15310071;19;20138;-82
2024/04/18 07:43:39;;;;;;;0.70;0.40;;;6.10;99.90;;;;;;15318971;19;20197;-81
2024/04/18 07:48:40;;;;;;;0.80;0.40;;;5.70;99.90;;;;;;15323483;19;20613;-81
2024/04/18 07:53:41;;;;;;;1.47;0.60;;;5.70;99.90;;;;;;15338577;19;20154;-84
2024/04/18 07:58:42;;;;;;;1.13;0.60;;;5.60;99.90;;;;;;15358121;19;20261;-82
2024/04/18 08:03:42;;;;;;;4.07;0.77;;;6.00;99.90;;;;;;15333157;19;20595;-83
2024/04/18 08:08:43;;;;;;;0.50;0.40;;;5.60;99.90;;;;;;15335805;19;20130;-82
2024/04/18 08:13:44;;;;;;;1.07;0.40;;;5.50;99.90;;;;;;15327470;19;20178;-83
2024/04/18 08:18:44;;;;;;;1.27;0.50;;;5.30;99.90;;;;;;15322563;19;20150;-81
2024/04/18 08:23:51;;;;;;;1.10;0.70;;;5.40;99.90;;;;;;15316295;19;20144;-79
2024/04/18 08:28:51;;;;;;;1.73;1.00;;;5.80;99.90;;;;;;15331033;19;20127;-80
2024/04/18 08:33:53;;;;;;;0.97;0.60;;;6.00;99.90;;;;;;15324073;19;20176;-82
2024/04/18 08:38:54;;;;;;;1.37;0.80;;;6.00;99.90;;;;;;15316966;19;20127;-81
2024/04/18 08:43:55;;;;;;;1.60;0.70;;;5.90;99.90;;;;;;15319296;19;20146;-80
2024/04/18 08:48:57;;;;;;;0.70;0.37;;;5.60;99.90;;;;;;15319225;19;20139;-81
2024/04/18 08:53:58;;;;;;;0.77;0.50;;;5.60;99.90;;;;;;15323575;19;20190;-82
2024/04/18 08:58:59;;;;;;;0.67;0.40;;;5.80;99.90;;;;;;15338427;19;20137;-81
2024/04/18 09:03:59;;;;;;;2.33;0.97;;;6.20;99.90;;;;;;15320934;19;20130;-83
2024/04/18 09:09:00;;;;;;;2.07;0.97;;;6.30;99.90;;;;;;15336152;19;20150;-83
2024/04/18 09:14:01;;;;;;;1.30;0.70;;;6.30;99.90;;;;;;15339077;19;20170;-81
2024/04/18 09:19:01;;;;;;;1.07;0.50;;;6.70;99.90;;;;;;15355003;19;20126;-82
2024/04/18 09:24:05;;;;;;;1.20;0.60;;;6.80;99.90;;;;;;15344224;19;20170;-80
2024/04/18 09:29:05;;;;;;;0.90;0.50;;;6.50;99.90;;;;;;15324889;19;20992;-83
2024/04/18 09:34:06;;;;;;;1.87;0.87;;;6.50;99.90;;;;;;15313793;19;20134;-81
2024/04/18 09:39:20;;;;;;;0.93;0.60;;;6.90;99.90;;;;;;15319143;19;20147;-81
2024/04/18 09:44:21;;;;;;;2.50;0.63;;;7.10;99.90;;;;;;15307924;19;20154;-80
2024/04/18 09:49:22;;;;;;;3.53;1.37;;;7.20;99.90;;;;;;15319394;19;20138;-80
2024/04/18 09:54:23;;;;;;;2.70;0.90;;;7.90;99.90;;;;;;15318502;19;20162;-81
2024/04/18 09:59:26;;;;;;;2.80;1.23;;;8.00;99.90;;;;;;15338658;19;20149;-81
2024/04/18 10:04:28;;;;;;;4.17;1.37;;;7.90;99.90;;;;;;15317382;19;20176;-81
2024/04/18 10:09:30;;;;;;;1.73;0.83;;;8.10;99.90;;;;;;15311082;19;20577;-80
2024/04/18 10:14:30;;;;;;;0.90;0.47;;;7.60;99.90;;;;;;15323394;19;20146;-85
2024/04/18 10:19:31;;;;;;;1.80;0.73;;;6.40;99.90;;;;;;15325193;19;20206;-85
2024/04/18 10:24:37;;;;;;;1.87;0.93;;;5.40;99.90;;;;;;15332906;19;20138;-85
2024/04/18 10:29:38;;;;;;;0.20;0.20;;;4.80;99.90;;;;;;15327402;19;20134;-85
2024/04/18 10:34:41;;;;;;;0.53;0.30;;;4.30;99.90;;;;;;15328230;19;20154;-86
2024/04/18 10:39:43;;;;;;;0.97;0.40;;;4.40;99.90;;;;;;15319910;19;20147;-84
2024/04/18 10:44:46;;;;;;;1.37;0.20;;;4.70;99.90;;;;;;15317348;19;20173;-83
2024/04/18 10:49:46;;;;;;;0.83;0.30;;;5.10;99.90;;;;;;15320275;19;20137;-82
2024/04/18 10:54:47;;;;;;;1.33;0.50;;;5.10;99.90;;;;;;15318895;19;21061;-82
2024/04/18 10:59:48;;;;;;;1.47;0.53;;;5.50;99.90;;;;;;15316953;19;20158;-78
2024/04/18 11:04:48;;;;;;;1.20;0.97;;;5.40;99.90;;;;;;15317368;19;20610;-84
2024/04/18 11:09:49;;;;;;;1.23;0.60;;;5.30;99.90;;;;;;15314780;19;20606;-81
2024/04/18 11:14:51;;;;;;;1.37;0.90;;;5.20;99.90;;;;;;15320233;19;20181;-82
2024/04/18 11:19:51;;;;;;;2.00;1.20;;;5.50;99.90;;;;;;15332389;19;20138;-82
2024/04/18 11:24:52;;;;;;;0.87;0.70;;;6.20;99.90;;;;;;15320201;19;20169;-81
2024/04/18 11:29:53;;;;;;;1.93;1.10;;;6.80;99.90;;;;;;15330472;19;20137;-81
2024/04/18 11:34:53;;;;;;;1.90;0.97;;;7.10;99.90;;;;;;15312873;19;20142;-81
2024/04/18 11:39:55;;;;;;;2.47;1.10;;;8.20;99.90;;;;;;15317258;19;20126;-82
2024/04/18 11:44:55;;;;;;;1.80;1.00;;;8.80;99.90;;;;;;15320463;19;20207;-82
2024/04/18 11:49:56;;;;;;;3.07;1.10;;;8.50;99.90;;;;;;15330528;19;20532;-82
2024/04/18 11:54:56;;;;;;;1.40;0.73;;;7.60;99.90;;;;;;15307574;19;20150;-82
2024/04/18 11:59:57;;;;;;;2.00;1.00;;;6.60;99.90;;;;;;15301115;19;20596;-82
2024/04/18 12:04:57;;;;;;;1.87;1.20;;;6.30;99.90;;;;;;15304196;19;20135;-79
2024/04/18 12:09:58;;;;;;;2.70;1.10;;;6.20;99.90;;;;;;15305508;19;20135;-81
2024/04/18 12:14:59;;;;;;;1.33;0.97;;;5.70;99.90;;;;;;15303459;19;20184;-78
2024/04/18 12:19:59;;;;;;;13.50;1.37;;;5.60;99.90;;;;;;15297011;19;20146;-81
2024/04/18 12:25:02;;;;;;;1.27;0.60;;;5.70;99.90;;;;;;15298263;19;20164;-79
2024/04/18 12:30:02;;;;;;;1.33;0.80;;;6.00;99.90;;;;;;15318743;19;20150;-80
2024/04/18 12:35:03;;;;;;;4.50;0.90;;;6.30;99.90;;;;;;15320363;19;20161;-79
2024/04/18 12:40:05;;;;;;;2.10;1.03;;;6.20;99.90;;;;;;15310621;19;20130;-79
2024/04/18 12:45:06;;;;;;;2.23;0.90;;;6.10;99.90;;;;;;15309326;19;20171;-81
2024/04/18 12:50:06;;;;;;;2.80;1.23;;;6.20;99.90;;;;;;15315514;19;21077;-80
2024/04/18 12:55:07;;;;;;;0.87;0.60;;;6.30;99.90;;;;;;15325157;19;20170;-83
2024/04/18 13:00:08;;;;;;;2.03;1.00;;;6.90;99.90;;;;;;15323067;19;20119;-82
2024/04/18 13:05:08;;;;;;;2.00;0.77;;;7.60;99.90;;;;;;15316823;19;20633;-82
2024/04/18 13:10:10;;;;;;;2.60;1.10;;;8.40;99.90;;;;;;15318709;19;20133;-81
2024/04/18 13:15:10;;;;;;;2.37;0.63;;;9.40;99.90;;;;;;15321817;19;20154;-79
2024/04/18 13:20:11;;;;;;;2.80;1.57;;;9.80;99.90;;;;;;15330720;19;20167;-79
2024/04/18 13:25:11;;;;;;;3.10;1.00;;;10.70;99.90;;;;;;15317959;19;20141;-79
2024/04/18 13:30:12;;;;;;;2.17;1.00;;;11.20;99.90;;;;;;15324806;19;20130;-80
2024/04/18 13:35:12;;;;;;;2.20;1.00;;;10.70;99.90;;;;;;15322012;19;20154;-82
2024/04/18 13:40:13;;;;;;;2.27;0.93;;;10.70;99.90;;;;;;15316316;19;20134;-81
2024/04/18 13:45:14;;;;;;;1.77;0.90;;;10.60;99.90;;;;;;15319797;19;20158;-83
2024/04/18 13:50:14;;;;;;;1.37;0.90;;;10.80;99.90;;;;;;15314953;19;20118;-81
2024/04/18 13:55:15;;;;;;;1.37;0.70;;;10.60;99.90;;;;;;15306834;19;20208;-80
2024/04/18 14:00:21;;;;;;;1.63;1.00;;;10.40;99.90;;;;;;15313152;19;20197;-80
2024/04/18 14:05:22;;;;;;;1.93;0.70;;;10.20;99.90;;;;;;15310076;19;20581;-80
2024/04/18 14:10:23;;;;;;;1.63;0.90;;;10.60;99.90;;;;;;15305670;19;20193;-81
2024/04/18 14:15:36;;;;;;;1.57;0.77;;;10.60;99.90;;;;;;15303192;19;20165;-78
2024/04/18 14:20:47;;;;;;;1.80;0.80;;;10.70;99.90;;;;;;15308313;19;20130;-79
2024/04/18 14:25:48;;;;;;;1.87;1.37;;;11.30;99.90;;;;;;15312748;19;20177;-80
2024/04/18 14:30:48;;;;;;;1.53;0.70;;;11.60;99.90;;;;;;15321759;19;20130;-79
2024/04/18 14:35:49;;;;;;;3.20;0.77;;;11.60;99.90;;;;;;15312976;19;20150;-79
2024/04/18 14:40:53;;;;;;;1.23;0.60;;;11.30;99.90;;;;;;15313384;19;20137;-80
2024/04/18 14:45:54;;;;;;;0.20;0.20;;;9.70;99.90;;;;;;15320286;19;20149;-79
2024/04/18 14:50:54;;;;;;;0.67;0.40;;;8.40;99.90;;;;;;15307380;19;20182;-77
2024/04/18 14:55:55;;;;;;;0.90;0.60;;;8.00;99.90;;;;;;15301231;19;20153;-77
2024/04/18 15:00:55;;;;;;;0.70;0.50;;;8.10;99.90;;;;;;15301099;19;20158;-77
2024/04/18 15:05:57;;;;;;;1.13;0.60;;;8.40;99.90;;;;;;15301011;19;20181;-78
2024/04/18 15:10:58;;;;;;;1.50;0.50;;;8.90;99.90;;;;;;15302815;19;20138;-78
2024/04/18 15:15:58;;;;;;;2.00;0.70;;;9.40;99.90;;;;;;15301069;19;20186;-78
2024/04/18 15:20:59;;;;;;;1.17;0.50;;;9.60;99.90;;;;;;15263621;19;20209;-79
2024/04/18 15:25:59;;;;;;;2.00;0.80;;;10.30;99.90;;;;;;15307941;19;20166;-80
2024/04/18 15:31:00;;;;;;;1.63;0.70;;;10.60;99.90;;;;;;15309372;19;20242;-80
2024/04/18 15:36:01;;;;;;;2.00;0.93;;;10.40;99.90;;;;;;15327002;19;20134;-79
2024/04/18 15:41:01;;;;;;;0.90;0.50;;;9.90;99.90;;;;;;15320571;19;20122;-80
2024/04/18 15:46:03;;;;;;;1.17;0.60;;;9.20;99.90;;;;;;15312530;19;20181;-79
2024/04/18 15:51:04;;;;;;;1.50;0.57;;;8.40;99.90;;;;;;15304265;19;20146;-80
2024/04/18 15:56:04;;;;;;;0.97;0.50;;;7.50;99.90;;;;;;15304158;19;20149;-79
2024/04/18 16:01:05;;;;;;;1.13;0.67;;;7.10;99.90;;;;;;15306730;19;20122;-80
2024/04/18 16:06:06;;;;;;;1.03;0.40;;;6.90;99.90;;;;;;15318581;19;20165;-80
2024/04/18 16:11:07;;;;;;;0.50;0.30;;;6.70;99.90;;;;;;15311122;19;20158;-78
2024/04/18 16:16:07;;;;;;;0.93;0.50;;;6.60;99.90;;;;;;15306365;19;20513;-79
2024/04/18 16:21:08;;;;;;;1.00;0.63;;;6.80;99.90;;;;;;15307938;19;20119;-78
2024/04/18 16:26:08;;;;;;;1.33;0.60;;;7.40;99.90;;;;;;15315686;19;20150;-79
2024/04/18 16:31:09;;;;;;;1.33;0.50;;;7.90;99.90;;;;;;15311333;19;20618;-79
2024/04/18 16:36:09;;;;;;;0.70;0.47;;;8.30;99.90;;;;;;15319937;19;20158;-78
2024/04/18 16:41:10;;;;;;;0.80;0.40;;;8.00;99.90;;;;;;15304630;19;20126;-78
2024/04/18 16:46:10;;;;;;;1.23;0.50;;;8.30;99.90;;;;;;15297399;19;20169;-78
2024/04/18 16:51:11;;;;;;;0.67;0.53;;;8.70;99.90;;;;;;15301522;19;20700;-80
2024/04/18 16:56:11;;;;;;;0.53;0.30;;;9.00;99.90;;;;;;15302730;19;20198;-79
2024/04/18 17:01:12;;;;;;;0.70;0.40;;;9.30;99.90;;;;;;15299130;19;20930;-78
2024/04/18 17:06:12;;;;;;;0.23;0.20;;;9.00;99.90;;;;;;15302485;19;20175;-77
2024/04/18 17:11:13;;;;;;;0.73;0.37;;;8.70;99.90;;;;;;15298913;19;20123;-78
2024/04/18 17:16:13;;;;;;;0.80;0.40;;;8.10;99.90;;;;;;15298817;19;20167;-78
2024/04/18 17:21:14;;;;;;;0.60;0.50;;;7.90;99.90;;;;;;15295238;19;20194;-78
2024/04/18 17:26:15;;;;;;;0.90;0.40;;;7.70;99.90;;;;;;15298456;19;20154;-79
2024/04/18 17:31:15;;;;;;;1.70;0.57;;;7.80;99.90;;;;;;15296481;19;20155;-78
2024/04/18 17:36:16;;;;;;;0.50;0.30;;;7.80;99.90;;;;;;15303704;19;20148;-79
2024/04/18 17:41:16;;;;;;;1.67;0.60;;;8.00;99.90;;;;;;15296434;19;20134;-78
2024/04/18 17:46:17;;;;;;;0.43;0.23;;;8.00;99.90;;;;;;15297914;19;20187;-79
2024/04/18 17:51:17;;;;;;;1.37;0.50;;;8.00;99.90;;;;;;15297525;19;20126;-79
2024/04/18 17:56:18;;;;;;;1.03;0.53;;;8.00;99.90;;;;;;15299488;19;20142;-78
2024/04/18 18:01:18;;;;;;;1.40;0.53;;;8.30;99.90;;;;;;15294030;19;20178;-78
2024/04/18 18:06:19;;;;;;;1.00;0.67;;;8.10;99.90;;;;;;15292634;19;20177;-79
2024/04/18 18:11:19;;;;;;;1.00;0.43;;;7.90;99.90;;;;;;15300993;19;20431;-79
2024/04/18 18:16:20;;;;;;;0.37;0.33;;;7.30;99.90;;;;;;15299048;19;20191;-79
2024/04/18 18:21:21;;;;;;;0.57;0.40;;;6.80;99.90;;;;;;15299172;19;20126;-78
2024/04/18 18:26:24;;;;;;;0.83;0.50;;;6.60;99.90;;;;;;15291051;19;20130;-77
2024/04/18 18:31:25;;;;;;;1.23;0.70;;;6.30;99.90;;;;;;15246647;19;20185;-79
2024/04/18 18:36:25;;;;;;;1.23;0.50;;;6.10;99.90;;;;;;15293074;19;20184;-78
2024/04/18 18:41:26;;;;;;;0.67;0.40;;;6.00;99.90;;;;;;15283800;19;20134;-78
2024/04/18 18:46:27;;;;;;;1.43;0.60;;;6.00;99.90;;;;;;15282098;19;20178;-78
2024/04/18 18:51:27;;;;;;;1.20;0.97;;;5.90;99.90;;;;;;15294908;19;20146;-78
2024/04/18 18:56:28;;;;;;;0.67;0.63;;;5.80;99.90;;;;;;15293267;19;20170;-78
2024/04/18 19:01:28;;;;;;;0.90;0.47;;;5.80;99.90;;;;;;15294785;19;20788;-77
2024/04/18 19:06:29;;;;;;;2.17;0.80;;;5.80;99.90;;;;;;15289641;19;20142;-77
2024/04/18 19:11:29;;;;;;;2.40;0.90;;;5.70;99.90;;;;;;15292026;19;20126;-77
2024/04/18 19:16:30;;;;;;;1.33;0.60;;;5.60;99.90;;;;;;15287434;19;20175;-77
2024/04/18 19:21:31;;;;;;;1.80;1.00;;;5.60;99.90;;;;;;15289509;19;20534;-79
2024/04/18 19:26:31;;;;;;;0.93;0.60;;;5.60;99.90;;;;;;15287040;19;20202;-77
2024/04/18 19:31:32;;;;;;;1.03;0.73;;;5.50;99.90;;;;;;15291212;19;20133;-78
2024/04/18 19:36:32;;;;;;;1.60;0.70;;;5.40;99.90;;;;;;15267090;19;20190;-78
2024/04/18 19:41:33;;;;;;;1.23;0.90;;;5.40;99.90;;;;;;15291065;19;20134;-78
2024/04/18 19:46:33;;;;;;;1.43;0.60;;;5.10;99.90;;;;;;15287546;19;20214;-78
2024/04/18 19:51:34;;;;;;;2.33;0.60;;;5.10;99.90;;;;;;15273121;19;20154;-78
2024/04/18 19:56:34;;;;;;;2.10;0.67;;;5.10;99.90;;;;;;15287248;19;20527;-78
2024/04/18 20:01:35;;;;;;;2.73;1.10;;;5.10;99.90;;;;;;15291622;19;20126;-78
2024/04/18 20:06:35;;;;;;;2.10;1.37;;;5.20;99.90;;;;;;15284646;19;20178;-78
2024/04/18 20:11:36;;;;;;;1.23;0.80;;;5.20;99.90;;;;;;15291876;19;20137;-77
2024/04/18 20:16:43;;;;;;;0.63;0.47;;;5.30;99.90;;;;;;15288364;19;20142;-78
2024/04/18 20:21:43;;;;;;;0.77;0.67;;;5.20;99.90;;;;;;15290549;19;20134;-77
2024/04/18 20:26:44;;;;;;;1.80;0.63;;;5.20;99.90;;;;;;15287148;19;20150;-77
2024/04/18 20:37:41;;;;;;;2.13;0.57;;;5.10;99.90;;;;;;15254173;19;20705;-77
2024/04/18 20:42:42;;;;;;;1.07;0.80;;;5.10;99.90;;;;;;15263474;19;20182;-77
2024/04/18 20:47:43;;;;;;;0.83;0.50;;;5.10;99.90;;;;;;15270919;19;20581;-77
2024/04/18 20:52:43;;;;;;;1.90;0.60;;;5.00;99.90;;;;;;15266473;19;20193;-79
2024/04/18 20:57:44;;;;;;;1.63;0.80;;;5.00;99.90;;;;;;15287656;19;20130;-77
2024/04/18 21:02:44;;;;;;;2.53;0.93;;;5.10;99.90;;;;;;15285257;19;20153;-77
2024/04/18 21:07:45;;;;;;;1.00;0.43;;;5.30;99.90;;;;;;15256091;19;20123;-78
2024/04/18 21:12:45;;;;;;;2.17;0.80;;;5.50;99.90;;;;;;15249977;19;20965;-78
2024/04/18 21:17:46;;;;;;;2.20;0.40;;;5.70;99.90;;;;;;15279504;19;20214;-77
2024/04/18 21:22:48;;;;;;;1.23;0.77;;;5.90;99.90;;;;;;15277896;19;20150;-78
2024/04/18 21:27:50;;;;;;;1.07;0.47;;;6.00;99.90;;;;;;15277030;19;20163;-77
2024/04/18 21:32:51;;;;;;;0.93;0.50;;;6.10;99.90;;;;;;15278075;19;20182;-77
2024/04/18 21:37:52;;;;;;;0.90;0.50;;;6.10;99.90;;;;;;15278484;19;20154;-77
2024/04/18 21:42:54;;;;;;;0.80;0.50;;;6.10;99.90;;;;;;15282531;19;20229;-76
2024/04/18 21:47:55;;;;;;;1.33;0.70;;;6.10;99.90;;;;;;15284486;19;20136;-77
2024/04/18 21:52:56;;;;;;;0.87;0.47;;;6.20;99.90;;;;;;15263504;19;20556;-76
2024/04/18 21:57:56;;;;;;;1.23;0.30;;;6.20;99.90;;;;;;15286986;19;20245;-76
2024/04/18 22:02:57;;;;;;;0.33;0.33;;;6.40;99.90;;;;;;15284051;19;20518;-75
2024/04/18 22:08:00;;;;;;;1.30;0.43;;;6.30;99.90;;;;;;15283920;19;20141;-75
2024/04/18 22:13:01;;;;;;;0.43;0.40;;;6.30;99.90;;;;;;15282843;19;20165;-75
2024/04/18 22:18:02;;;;;;;1.43;0.67;;;6.50;99.90;;;;;;15284020;19;21258;-76
2024/04/18 22:23:05;;;;;;;0.93;0.60;;;6.50;99.90;;;;;;15283000;19;20647;-77
2024/04/18 22:28:05;;;;;;;2.10;0.60;;;6.60;99.90;;;;;;15281837;19;20154;-76
2024/04/18 22:33:06;;;;;;;1.10;0.53;;;6.80;99.90;;;;;;15283502;19;20632;-75
2024/04/18 22:38:06;;;;;;;1.03;0.53;;;6.70;99.90;;;;;;15281931;19;20508;-77
2024/04/18 22:43:07;;;;;;;0.70;0.50;;;6.60;99.90;;;;;;15280794;19;20157;-76
2024/04/18 22:48:07;;;;;;;1.20;0.67;;;6.70;99.90;;;;;;15288843;19;20142;-76
2024/04/18 22:53:08;;;;;;;1.57;0.70;;;6.60;99.90;;;;;;15290589;19;20174;-75
2024/04/18 22:58:10;;;;;;;1.20;0.50;;;6.60;99.90;;;;;;15294294;19;20122;-77
2024/04/18 23:03:10;;;;;;;2.03;0.60;;;6.60;99.90;;;;;;15292303;19;20882;-76
2024/04/18 23:08:11;;;;;;;1.07;0.63;;;6.50;99.90;;;;;;15294154;19;20126;-76
2024/04/18 23:13:11;;;;;;;0.77;0.30;;;6.40;99.90;;;;;;15289963;19;20174;-76
2024/04/18 23:18:12;;;;;;;1.40;0.80;;;6.30;99.90;;;;;;15292930;19;20122;-76
2024/04/18 23:23:12;;;;;;;1.60;0.90;;;6.20;99.90;;;;;;15291991;19;20154;-76
2024/04/18 23:28:13;;;;;;;1.47;0.50;;;6.10;99.90;;;;;;15292508;19;20134;-75
2024/04/18 23:33:14;;;;;;;0.70;0.57;;;6.00;99.90;;;;;;15289922;19;20220;-75
2024/04/18 23:38:14;;;;;;;1.23;0.60;;;6.00;99.90;;;;;;15291749;19;20119;-75
2024/04/18 23:43:15;;;;;;;1.47;0.83;;;5.90;99.90;;;;;;15289535;19;20158;-75
2024/04/18 23:48:16;;;;;;;1.57;0.80;;;5.90;99.90;;;;;;15291017;19;20131;-76
2024/04/18 23:53:17;;;;;;;1.97;0.80;;;5.90;99.90;;;;;;15287731;19;20182;-76
2024/04/18 23:58:17;;;;;;;0.93;0.57;;;5.90;99.90;;;;;;15290800;19;20122;-75
